< < Back
Terminal Aerodrome Forecast


Current Version              Previous Versions:   1  2  3  4  5  6  7  8  9  

Terminal Aerodrome Forecast

891
FTUS42 KFFC 271100
TAFATL
TAF
KATL 271120Z 2712/2818 08007KT P6SM FEW250
     FM271500 06005KT P6SM FEW030
     FM271800 35005KT P6SM FEW050
     FM280200 VRB03KT P6SM SKC
     FM281400 28004KT P6SM SCT250=



Latest METAR

272
SAUS70 KWBC 271200 RRC
MTRATL
METAR KATL 271152Z 06005KT 10SM FEW200 SCT250 20/16 A3011 RMK AO2 SLP188
T02000156 10211 20189 53010


USA.gov is the U.S. government's official web portal to all federal, state and local government web resources and services.